createdAt,value
2022-10-12T00:00:01.637Z,99.72
2022-10-12T00:05:01.446Z,99.93
2022-10-12T00:10:01.919Z,99.77
2022-10-12T00:15:01.805Z,100.19
2022-10-12T00:20:02.014Z,100.04
2022-10-12T00:25:01.580Z,97.85
2022-10-12T00:30:01.838Z,98.03
2022-10-12T00:35:01.288Z,97.93
2022-10-12T00:40:01.508Z,98.07
2022-10-12T00:45:01.949Z,98.11
2022-10-12T00:50:01.496Z,100.07
2022-10-12T00:55:01.930Z,100.27
2022-10-12T01:00:02.230Z,98.48
2022-10-12T01:05:01.373Z,98.49
2022-10-12T01:10:01.816Z,99.98
2022-10-12T01:15:01.396Z,98.58
2022-10-12T01:20:02.175Z,98.49
2022-10-12T01:25:01.515Z,98.56
2022-10-12T01:30:01.562Z,98.11
2022-10-12T01:35:01.935Z,98.24
2022-10-12T01:40:02.143Z,98.78
2022-10-12T01:45:02.213Z,98.65
2022-10-12T01:50:02.121Z,98.24
2022-10-12T01:55:02.274Z,98.73
2022-10-12T02:00:01.829Z,97.74
2022-10-12T02:05:01.719Z,99.63
2022-10-12T02:10:01.295Z,99.82
2022-10-12T02:15:01.736Z,98.62
2022-10-12T02:20:02.197Z,98.88
2022-10-12T02:25:02.064Z,98.34
2022-10-12T02:30:01.999Z,98.34
2022-10-12T02:35:01.309Z,98.81
2022-10-12T02:40:01.694Z,100.06
2022-10-12T02:45:02.116Z,99.86
2022-10-12T02:50:01.985Z,98.41
2022-10-12T02:55:02.165Z,98.94
2022-10-12T03:00:01.818Z,98.93
2022-10-12T03:05:01.957Z,98.61
2022-10-12T03:10:01.554Z,100.11
2022-10-12T03:15:01.900Z,98.6
2022-10-12T03:20:01.768Z,98.24
2022-10-12T03:25:01.493Z,98.32
2022-10-12T03:30:01.964Z,98.85
2022-10-12T03:35:02.138Z,99.87
2022-10-12T03:40:01.505Z,98.14
2022-10-12T03:45:01.822Z,100.17
2022-10-12T03:50:02.051Z,99.92
2022-10-12T03:55:01.325Z,98.4
2022-10-12T04:00:02.135Z,99.48
2022-10-12T04:05:01.641Z,98.66
2022-10-12T04:10:01.514Z,98.56
2022-10-12T04:15:02.198Z,98.59
2022-10-12T04:20:01.903Z,98.39
2022-10-12T04:25:01.996Z,99.33
2022-10-12T04:30:01.888Z,99.02
2022-10-12T04:35:01.693Z,98.76
2022-10-12T04:40:02.154Z,99.75
2022-10-12T04:45:02.097Z,98.45
2022-10-12T04:50:01.740Z,98.18
2022-10-12T04:55:01.822Z,100.07
2022-10-12T05:00:02.318Z,98.12
2022-10-12T05:05:01.463Z,98.38
2022-10-12T05:10:02.170Z,98.27
2022-10-12T05:15:01.776Z,98.9
2022-10-12T05:20:02.158Z,98.55
2022-10-12T05:25:01.576Z,98.61
2022-10-12T05:30:01.781Z,98.49
2022-10-12T05:35:01.652Z,98.31
2022-10-12T05:40:01.418Z,98.52
2022-10-12T05:45:02.383Z,98.59
2022-10-12T05:50:02.188Z,98.29
2022-10-12T05:55:01.897Z,100.27
2022-10-12T06:00:01.508Z,98.33
2022-10-12T06:05:02.220Z,98.79
2022-10-12T06:10:01.468Z,98.46
2022-10-12T06:15:01.745Z,98.62
2022-10-12T06:20:01.536Z,98.98
2022-10-12T06:30:02.237Z,98.53
2022-10-12T06:40:02.169Z,98.72
2022-10-12T06:45:01.303Z,98.46
2022-10-12T06:50:02.165Z,98.66
2022-10-12T06:55:01.943Z,98.84
2022-10-12T07:00:01.575Z,99.24
2022-10-12T07:05:01.448Z,99.82
2022-10-12T07:10:01.457Z,98.98
2022-10-12T07:15:02.238Z,98.79
2022-10-12T07:20:01.914Z,98.39
2022-10-12T07:25:02.104Z,100.08
2022-10-12T07:30:01.723Z,98.34
2022-10-12T07:35:01.367Z,99.69
2022-10-12T07:40:01.675Z,99.39
2022-10-12T07:45:02.074Z,98.89
2022-10-12T07:50:02.106Z,98.57
2022-10-12T07:55:02.014Z,98.69
2022-10-12T08:00:02.209Z,97.36
2022-10-12T08:05:02.101Z,97.05
2022-10-12T08:10:02.098Z,95.57
2022-10-12T08:15:01.385Z,95.01
2022-10-12T08:20:01.696Z,93.19
2022-10-12T08:25:01.712Z,92.23
2022-10-12T08:30:01.783Z,91.21
2022-10-12T08:35:01.316Z,89.96
2022-10-12T08:40:03.543Z,90.29
2022-10-12T08:45:01.808Z,90.29
2022-10-12T08:50:02.214Z,86.75
2022-10-12T08:55:01.866Z,85.88
2022-10-12T09:00:02.239Z,85.41
2022-10-12T09:05:01.766Z,85.49
2022-10-12T09:10:02.387Z,86.81
2022-10-12T09:15:01.776Z,89.38
2022-10-12T09:20:01.662Z,89.16
2022-10-12T09:25:01.872Z,89.24
2022-10-12T09:30:01.709Z,86.91
2022-10-12T09:35:01.957Z,85.61
2022-10-12T09:40:01.825Z,85.2
2022-10-12T09:45:02.134Z,86.33
2022-10-12T09:50:01.671Z,86.22
2022-10-12T09:55:04.868Z,83.2
2022-10-12T10:00:01.401Z,84.82
2022-10-12T10:05:01.602Z,81.44
2022-10-12T10:10:02.187Z,82.02
2022-10-12T10:15:01.817Z,83.22
2022-10-12T10:20:02.010Z,83.02
2022-10-12T10:25:01.637Z,83.73
2022-10-12T10:30:17.535Z,82.09
2022-10-12T10:35:02.194Z,84.02
2022-10-12T10:40:01.307Z,83.93
2022-10-12T10:45:02.215Z,82.05
2022-10-12T10:50:02.114Z,81.78
2022-10-12T10:55:01.949Z,81.9
2022-10-12T11:00:19.847Z,82.48
2022-10-12T11:05:02.007Z,82.63
2022-10-12T11:10:01.978Z,80.09
2022-10-12T11:15:02.209Z,80.75
2022-10-12T11:20:01.887Z,79.66
2022-10-12T11:25:01.648Z,80.01
2022-10-12T11:30:09.324Z,80.33
2022-10-12T11:35:02.137Z,81.91
2022-10-12T11:40:02.032Z,80.73
2022-10-12T11:45:01.641Z,80.89
2022-10-12T11:50:02.219Z,82.92
2022-10-12T11:55:01.475Z,80.19
2022-10-12T12:00:02.120Z,81.2
2022-10-12T12:05:02.113Z,80.99
2022-10-12T12:10:01.740Z,79.18
2022-10-12T12:15:01.503Z,79.31
2022-10-12T12:20:01.665Z,81.12
2022-10-12T12:25:01.810Z,81.12
2022-10-12T12:30:02.056Z,79.74
2022-10-12T12:35:02.058Z,79.59
2022-10-12T12:40:01.902Z,78.2
2022-10-12T12:45:02.212Z,79.08
2022-10-12T12:50:01.660Z,81.16
2022-10-12T12:55:01.779Z,82.05
2022-10-12T13:00:01.737Z,78.31
2022-10-12T13:05:01.770Z,77.88
2022-10-12T13:10:02.249Z,77.81
2022-10-12T13:15:01.452Z,79.12
2022-10-12T13:20:01.779Z,77.89
2022-10-12T13:25:01.264Z,76.49
2022-10-12T13:30:01.770Z,75.62
2022-10-12T13:35:01.650Z,75.62
2022-10-12T13:40:02.070Z,75.65
2022-10-12T13:45:02.201Z,75.55
2022-10-12T13:50:01.505Z,75.23
2022-10-12T13:55:01.959Z,76.07
2022-10-12T14:00:01.650Z,76.69
2022-10-12T14:05:02.169Z,78.92
2022-10-12T14:10:01.500Z,77.58
2022-10-12T14:15:02.147Z,77.61
2022-10-12T14:20:01.660Z,77.05
2022-10-12T14:25:01.885Z,76.97
2022-10-12T14:30:01.679Z,76.91
2022-10-12T14:35:01.492Z,77.07
2022-10-12T14:40:01.301Z,77.41
2022-10-12T14:45:01.854Z,76.87
2022-10-12T14:50:02.075Z,76.86
2022-10-12T14:55:02.096Z,77.23
2022-10-12T15:00:01.522Z,77.74
2022-10-12T15:05:02.067Z,78.04
2022-10-12T15:10:01.286Z,78.58
2022-10-12T15:15:01.980Z,78.18
2022-10-12T15:20:02.169Z,78.55
2022-10-12T15:25:01.951Z,78.94
2022-10-12T15:30:02.173Z,79
2022-10-12T15:35:02.171Z,78.81
2022-10-12T15:40:01.755Z,79.06
2022-10-12T15:45:01.765Z,79.67
2022-10-12T15:50:01.535Z,79.89
2022-10-12T15:55:02.171Z,80.55
2022-10-12T16:00:01.689Z,81.18
2022-10-12T16:05:02.120Z,82.11
2022-10-12T16:10:01.707Z,82.89
2022-10-12T16:15:01.537Z,84.74
2022-10-12T16:20:02.121Z,86.4
2022-10-12T16:25:01.566Z,87.56
2022-10-12T16:30:02.019Z,88.71
2022-10-12T16:35:01.750Z,89.53
2022-10-12T16:40:01.852Z,89.94
2022-10-12T16:45:01.622Z,90.03
2022-10-12T16:50:01.730Z,89.75
2022-10-12T16:55:02.037Z,89.45
2022-10-12T17:00:01.419Z,89.33
2022-10-12T17:05:02.181Z,89.34
2022-10-12T17:10:01.911Z,89.52
2022-10-12T17:15:02.075Z,89.33
2022-10-12T17:20:06.955Z,89.48
2022-10-12T17:25:02.492Z,89.54
2022-10-12T17:30:02.437Z,89.67
2022-10-12T17:35:02.336Z,89.74
2022-10-12T17:40:01.640Z,89.9
2022-10-12T17:45:02.156Z,90.04
2022-10-12T17:50:02.075Z,91.26
2022-10-12T17:55:01.798Z,92.28
2022-10-12T18:00:02.082Z,92.6
2022-10-12T18:05:01.910Z,93.06
2022-10-12T18:10:01.977Z,93.29
2022-10-12T18:15:02.480Z,93.29
2022-10-12T18:20:02.391Z,93.35
2022-10-12T18:25:03.108Z,93.51
2022-10-12T18:30:02.092Z,93.62
2022-10-12T18:35:02.201Z,93.26
2022-10-12T18:40:02.311Z,92.4
2022-10-12T18:45:01.814Z,91.77
2022-10-12T18:50:02.009Z,91.18
2022-10-12T18:55:01.761Z,90.91
2022-10-12T19:00:02.883Z,91.22
2022-10-12T19:05:01.777Z,91.48
2022-10-12T19:10:01.798Z,91.7
2022-10-12T19:15:01.908Z,91.82
2022-10-12T19:20:01.820Z,92.27
2022-10-12T19:25:01.458Z,92.53
2022-10-12T19:30:02.718Z,92.76
2022-10-12T19:35:02.379Z,92.77
2022-10-12T19:40:07.309Z,93.54
2022-10-12T19:45:02.114Z,93.91
2022-10-12T19:50:02.764Z,94.57
2022-10-12T19:55:02.527Z,95.47
2022-10-12T20:00:03.155Z,96.33
2022-10-12T20:05:03.208Z,96.8
2022-10-12T20:10:02.082Z,96.91
2022-10-12T20:15:02.022Z,97.05
2022-10-12T20:20:02.371Z,97.25
2022-10-12T20:25:06.976Z,98.12
2022-10-12T20:30:02.001Z,97.78
2022-10-12T20:35:02.058Z,97.79
2022-10-12T20:40:02.795Z,97.7
2022-10-12T20:45:02.742Z,98.12
2022-10-12T20:50:02.839Z,98.15
2022-10-12T20:55:01.601Z,98.12
2022-10-12T21:00:01.806Z,96.88
2022-10-12T21:05:02.800Z,98.15
2022-10-12T21:10:02.808Z,97.86
2022-10-12T21:15:02.487Z,97.92
2022-10-12T21:20:02.145Z,98.19
2022-10-12T21:25:02.727Z,98.35
2022-10-12T21:30:02.092Z,98.29
2022-10-12T21:35:01.999Z,98.5
2022-10-12T21:40:02.850Z,97.66
2022-10-12T21:45:02.156Z,98.36
2022-10-12T21:50:02.243Z,97.79
2022-10-12T21:55:02.485Z,98.58
2022-10-12T22:00:01.985Z,98.05
2022-10-12T22:05:02.511Z,98.82
2022-10-12T22:10:02.073Z,98.21
2022-10-12T22:15:01.799Z,96.47
2022-10-12T22:20:01.754Z,98.85
2022-10-12T22:25:02.294Z,96.42
2022-10-12T22:30:02.561Z,98.72
2022-10-12T22:35:01.862Z,97.86
2022-10-12T22:40:02.350Z,98.46
2022-10-12T22:45:01.459Z,97.58
2022-10-12T22:50:01.590Z,98.39
2022-10-12T22:55:02.813Z,97.74
2022-10-12T23:00:01.637Z,98.52
2022-10-12T23:05:01.403Z,96.12
2022-10-12T23:10:01.361Z,97.79
2022-10-12T23:15:01.798Z,97.79
2022-10-12T23:25:01.574Z,98.44
2022-10-12T23:30:02.354Z,98.67
2022-10-12T23:35:01.983Z,96.41
2022-10-12T23:40:01.708Z,98.21
2022-10-12T23:45:02.389Z,98.23
2022-10-12T23:50:02.076Z,96.5
2022-10-12T23:55:02.242Z,98.82
